createdAt,value
2023-04-29T00:03:29.518Z,7.74
2023-04-29T00:08:56.069Z,7.72
2023-04-29T00:13:59.453Z,7.68
2023-04-29T00:19:02.722Z,7.63
2023-04-29T00:24:06.294Z,7.60
2023-04-29T00:29:09.608Z,7.61
2023-04-29T00:34:13.188Z,7.68
2023-04-29T00:39:16.540Z,7.72
2023-04-29T00:44:19.909Z,7.73
2023-04-29T00:49:23.454Z,7.72
2023-04-29T00:54:26.855Z,7.65
2023-04-29T00:59:32.505Z,7.57
2023-04-29T01:04:36.354Z,7.51
2023-04-29T01:10:25.215Z,7.45
2023-04-29T01:15:39.833Z,7.38
2023-04-29T01:20:46.233Z,7.34
2023-04-29T01:25:49.824Z,7.34
2023-04-29T01:31:19.866Z,7.33
2023-04-29T01:36:35.668Z,7.32
2023-04-29T01:41:59.182Z,7.36
2023-04-29T01:47:10.591Z,7.45
2023-04-29T01:52:19.265Z,7.54
2023-04-29T01:57:32.545Z,7.58
2023-04-29T02:02:55.087Z,7.51
2023-04-29T02:08:20.754Z,7.47
2023-04-29T02:13:24.450Z,7.43
2023-04-29T02:19:01.361Z,7.37
2023-04-29T02:24:04.942Z,7.30
2023-04-29T02:29:09.210Z,7.28
2023-04-29T02:34:24.307Z,7.27
2023-04-29T02:39:48.333Z,7.23
2023-04-29T02:44:51.978Z,7.24
2023-04-29T02:49:55.603Z,7.28
2023-04-29T02:54:58.923Z,7.33
2023-04-29T03:00:02.986Z,7.33
2023-04-29T03:05:06.890Z,7.31
2023-04-29T03:10:12.605Z,7.31
2023-04-29T03:15:16.122Z,7.28
2023-04-29T03:20:20.632Z,7.24
2023-04-29T03:25:24.106Z,7.21
2023-04-29T03:30:28.360Z,7.18
2023-04-29T03:35:34.183Z,7.17
2023-04-29T03:40:59.171Z,7.22
2023-04-29T03:46:02.695Z,7.27
2023-04-29T03:51:06.252Z,7.37
2023-04-29T03:56:09.888Z,7.43
2023-04-29T04:01:33.855Z,7.47
2023-04-29T04:06:37.558Z,7.46
2023-04-29T04:11:42.272Z,7.45
2023-04-29T04:16:45.711Z,7.45
2023-04-29T04:21:49.549Z,7.44
2023-04-29T04:26:53.005Z,7.47
2023-04-29T04:32:19.237Z,7.56
2023-04-29T04:37:23.279Z,7.68
2023-04-29T04:42:30.822Z,7.82
2023-04-29T04:47:34.876Z,8.04
2023-04-29T04:52:42.845Z,8.42
2023-04-29T04:57:54.571Z,8.85
2023-04-29T05:02:58.502Z,9.10
2023-04-29T05:08:03.355Z,9.35
2023-04-29T05:13:12.103Z,9.71
2023-04-29T05:18:16.043Z,9.93
2023-04-29T05:23:19.560Z,10.17
2023-04-29T05:28:23.438Z,10.35
2023-04-29T05:33:29.944Z,10.69
2023-04-29T05:38:33.808Z,11.16
2023-04-29T05:43:41.822Z,11.52
2023-04-29T05:48:45.439Z,11.82
2023-04-29T05:53:49.517Z,12.21
2023-04-29T05:58:53.334Z,12.78
2023-04-29T06:03:57.078Z,13.36
2023-04-29T06:09:27.088Z,13.88
2023-04-29T06:14:32.902Z,14.31
2023-04-29T06:19:36.573Z,14.41
2023-04-29T06:24:39.957Z,14.49
2023-04-29T06:29:44.096Z,14.64
2023-04-29T06:34:47.848Z,14.95
2023-04-29T06:40:04.033Z,15.17
2023-04-29T06:45:39.069Z,15.22
2023-04-29T06:50:56.664Z,15.47
2023-04-29T06:56:00.062Z,15.40
2023-04-29T07:01:04.386Z,15.27
2023-04-29T07:06:07.759Z,15.43
2023-04-29T07:11:11.165Z,15.55
2023-04-29T07:16:22.264Z,15.54
2023-04-29T07:21:25.771Z,15.49
2023-04-29T07:26:29.787Z,15.48
2023-04-29T07:31:38.234Z,15.50
2023-04-29T07:36:41.926Z,15.51
2023-04-29T07:41:45.850Z,15.68
2023-04-29T07:46:49.240Z,15.95
2023-04-29T07:51:52.854Z,16.06
2023-04-29T07:56:58.491Z,16.17
2023-04-29T08:02:01.909Z,16.25
2023-04-29T08:07:05.564Z,16.17
2023-04-29T08:12:09.158Z,16.06
2023-04-29T08:17:12.385Z,16.04
2023-04-29T08:22:16.112Z,16.19
2023-04-29T08:27:20.568Z,16.31
2023-04-29T08:32:23.903Z,16.45
2023-04-29T08:37:27.880Z,16.48
2023-04-29T08:42:37.966Z,16.64
2023-04-29T08:47:42.456Z,16.83
2023-04-29T08:52:45.826Z,16.98
2023-04-29T08:57:50.956Z,17.02
2023-04-29T09:02:57.947Z,16.96
2023-04-29T09:08:03.396Z,16.91
2023-04-29T09:13:06.977Z,16.98
2023-04-29T09:18:10.424Z,17.03
2023-04-29T09:23:13.677Z,17.04
2023-04-29T09:28:17.527Z,16.88
2023-04-29T09:33:20.960Z,16.74
2023-04-29T09:38:24.566Z,16.69
2023-04-29T09:43:27.870Z,16.67
2023-04-29T09:48:34.349Z,16.71
2023-04-29T09:53:39.035Z,16.86
2023-04-29T09:58:42.515Z,17.05
2023-04-29T10:03:48.981Z,17.19
2023-04-29T10:08:52.609Z,17.37
2023-04-29T10:13:56.432Z,17.57
2023-04-29T10:19:04.096Z,17.54
2023-04-29T10:24:10.268Z,17.68
2023-04-29T10:29:16.006Z,17.84
2023-04-29T10:34:20.113Z,17.80
2023-04-29T10:39:40.365Z,17.74
2023-04-29T10:45:21.632Z,17.79
2023-04-29T10:50:28.085Z,17.95
2023-04-29T10:55:35.926Z,18.09
2023-04-29T11:00:39.343Z,18.10
2023-04-29T11:05:42.816Z,18.04
2023-04-29T11:10:46.414Z,18.09
2023-04-29T11:15:51.955Z,18.33
2023-04-29T11:21:07.466Z,18.51
2023-04-29T11:26:11.179Z,18.40
2023-04-29T11:31:14.499Z,18.42
2023-04-29T11:36:17.773Z,18.32
2023-04-29T11:41:22.594Z,18.21
2023-04-29T11:46:28.407Z,18.20
2023-04-29T11:51:32.933Z,18.19
2023-04-29T11:56:38.396Z,18.05
2023-04-29T12:01:42.282Z,18.03
2023-04-29T12:06:46.594Z,18.12
2023-04-29T12:11:51.139Z,18.17
2023-04-29T12:16:54.406Z,18.19
2023-04-29T12:22:03.039Z,18.25
2023-04-29T12:27:11.025Z,18.56
2023-04-29T12:32:18.313Z,18.72
2023-04-29T12:37:23.704Z,18.83
2023-04-29T12:42:33.652Z,18.86
2023-04-29T12:47:39.617Z,18.85
2023-04-29T12:52:42.977Z,18.95
2023-04-29T12:57:46.238Z,19.08
2023-04-29T13:02:49.680Z,19.09
2023-04-29T13:07:53.222Z,19.06
2023-04-29T13:12:56.982Z,19.05
2023-04-29T13:18:00.729Z,19.10
2023-04-29T13:23:04.186Z,19.11
2023-04-29T13:28:07.845Z,19.06
2023-04-29T13:33:12.717Z,19.09
2023-04-29T13:38:17.913Z,19.05
2023-04-29T13:43:32.776Z,18.98
2023-04-29T13:54:41.376Z,18.85
2023-04-29T14:04:15.184Z,18.96
2023-04-29T14:09:20.229Z,19.05
2023-04-29T14:14:23.469Z,19.05
2023-04-29T14:19:26.841Z,19.03
2023-04-29T14:24:30.110Z,19.02
2023-04-29T14:29:33.328Z,19.05
2023-04-29T14:34:36.856Z,19.12
2023-04-29T14:39:40.264Z,19.17
2023-04-29T14:44:43.541Z,19.16
2023-04-29T14:49:47.031Z,19.15
2023-04-29T14:54:50.508Z,19.15
2023-04-29T14:59:53.959Z,19.14
2023-04-29T15:04:57.420Z,19.07
2023-04-29T15:10:00.972Z,19.03
2023-04-29T15:15:05.066Z,18.93
2023-04-29T15:20:09.787Z,18.86
2023-04-29T15:25:13.120Z,18.79
2023-04-29T15:30:17.478Z,18.77
2023-04-29T15:35:21.158Z,18.70
2023-04-29T15:40:24.637Z,18.62
2023-04-29T15:45:27.976Z,18.57
2023-04-29T15:50:31.308Z,18.55
2023-04-29T15:55:35.547Z,18.49
2023-04-29T16:00:39.063Z,18.43
2023-04-29T16:05:42.421Z,18.34
2023-04-29T16:10:46.174Z,18.23
2023-04-29T16:15:49.586Z,18.13
2023-04-29T16:20:53.097Z,18.07
2023-04-29T16:25:56.357Z,17.98
2023-04-29T16:30:59.629Z,17.88
2023-04-29T16:36:03.173Z,17.78
2023-04-29T16:41:07.462Z,17.70
2023-04-29T16:46:10.877Z,17.65
2023-04-29T16:51:14.211Z,17.59
2023-04-29T16:56:17.467Z,17.55
2023-04-29T17:01:20.914Z,17.52
2023-04-29T17:06:24.534Z,17.46
2023-04-29T17:11:42.964Z,17.38
2023-04-29T17:16:48.794Z,17.24
2023-04-29T17:22:12.732Z,17.11
2023-04-29T17:27:16.157Z,16.98
2023-04-29T17:32:28.261Z,16.88
2023-04-29T17:37:31.657Z,16.76
2023-04-29T17:42:34.948Z,16.64
2023-04-29T17:47:38.163Z,16.57
2023-04-29T17:52:41.773Z,16.50
2023-04-29T17:57:44.980Z,16.42
2023-04-29T18:02:48.352Z,16.36
2023-04-29T18:07:51.695Z,16.29
2023-04-29T18:12:55.109Z,16.24
2023-04-29T18:17:58.413Z,16.20
2023-04-29T18:23:01.869Z,16.13
2023-04-29T18:28:24.236Z,16.03
2023-04-29T18:33:31.076Z,15.97
2023-04-29T18:38:34.535Z,15.91
2023-04-29T18:43:38.123Z,15.84
2023-04-29T18:48:43.816Z,15.72
2023-04-29T18:53:47.323Z,15.63
2023-04-29T18:58:50.726Z,15.60
2023-04-29T19:03:54.218Z,15.55
2023-04-29T19:08:57.443Z,15.49
2023-04-29T19:14:00.921Z,15.45
2023-04-29T19:19:04.722Z,15.41
2023-04-29T19:24:08.228Z,15.34
2023-04-29T19:29:11.758Z,15.32
2023-04-29T19:34:14.931Z,15.31
2023-04-29T19:39:18.723Z,15.26
2023-04-29T19:44:23.036Z,15.17
2023-04-29T19:49:26.431Z,15.16
2023-04-29T19:54:30.075Z,15.19
2023-04-29T19:59:33.630Z,15.16
2023-04-29T20:04:36.937Z,15.10
2023-04-29T20:09:40.452Z,15.09
2023-04-29T20:14:43.837Z,15.07
2023-04-29T20:19:47.087Z,15.05
2023-04-29T20:24:50.557Z,15.02
2023-04-29T20:29:54.017Z,15.00
2023-04-29T20:34:57.587Z,14.96
2023-04-29T20:40:00.777Z,14.94
2023-04-29T20:45:06.316Z,14.90
2023-04-29T20:50:10.315Z,14.88
2023-04-29T20:55:13.601Z,14.79
2023-04-29T21:00:16.875Z,14.72
2023-04-29T21:05:20.160Z,14.71
2023-04-29T21:10:23.760Z,14.75
2023-04-29T21:15:29.399Z,14.75
2023-04-29T21:20:32.760Z,14.69
2023-04-29T21:25:35.980Z,14.62
2023-04-29T21:30:39.414Z,14.54
2023-04-29T21:35:43.323Z,14.41
2023-04-29T21:40:48.004Z,14.25
2023-04-29T21:45:53.685Z,14.09
2023-04-29T21:51:02.642Z,13.91
2023-04-29T21:56:06.707Z,13.71
2023-04-29T22:01:29.052Z,13.66
2023-04-29T22:06:33.618Z,13.71
2023-04-29T22:11:37.192Z,13.76
2023-04-29T22:16:40.598Z,13.78
2023-04-29T22:21:43.896Z,13.77
2023-04-29T22:26:47.349Z,13.79
2023-04-29T22:31:53.592Z,13.80
2023-04-29T22:36:57.922Z,13.80
2023-04-29T22:42:01.197Z,13.75
2023-04-29T22:47:04.589Z,13.73
2023-04-29T22:52:08.024Z,13.75
2023-04-29T22:57:11.312Z,13.78
2023-04-29T23:02:16.004Z,13.76
2023-04-29T23:07:19.352Z,13.69
2023-04-29T23:12:22.662Z,13.68
2023-04-29T23:17:25.980Z,13.62
2023-04-29T23:22:29.088Z,13.59
2023-04-29T23:27:32.343Z,13.50
2023-04-29T23:32:35.662Z,13.39
2023-04-29T23:37:39.672Z,13.34
2023-04-29T23:42:42.841Z,13.28
2023-04-29T23:47:46.084Z,13.32
2023-04-29T23:52:49.337Z,13.36
2023-04-29T23:57:52.639Z,13.32
